MDT,Max TemperatureF,Mean TemperatureF,Min TemperatureF,Max Dew PointF,MeanDew PointF,Min DewpointF,Max Humidity, Mean Humidity, Min Humidity, Max Sea Level PressureIn, Mean Sea Level PressureIn, Min Sea Level PressureIn, Max VisibilityMiles, Mean VisibilityMiles, Min VisibilityMiles, Max Wind SpeedMPH, Mean Wind SpeedMPH, Max Gust SpeedMPH,PrecipitationIn, CloudCover, Events, WindDirDegrees
2013-3-1,28,18,8,10,5,1,79,57,37,30.44,30.34,30.23,10,10,7,23,11,39,0.00,3,Snow,39
2013-3-2,35,27,19,18,10,3,80,49,32,30.51,30.45,30.36,10,10,10,21,12,29,0.00,0,,289
2013-3-3,30,24,19,19,16,12,100,76,51,30.35,30.12,29.97,10,9,2,37,23,46,0.00,4,Snow,222
2013-3-4,23,16,10,21,16,-8,100,91,41,30.14,29.96,29.89,10,3,0,29,19,40,0.40,6,Fog-Snow,233
2013-3-5,32,21,10,7,-4,-17,79,35,13,30.33,30.27,30.15,10,10,10,32,14,40,0.00,0,,226
2013-3-6,30,24,19,14,10,0,63,54,39,30.27,30.19,30.13,10,10,10,34,24,45,0.00,1,,225
2013-3-7,32,26,19,12,7,1,63,45,27,30.18,30.15,30.11,10,10,10,30,22,41,0.00,1,,218
2013-3-8,26,22,17,21,13,5,100,76,47,30.13,29.95,29.74,10,5,0,33,16,48,0.21,5,Snow-Thunderstorm,219
2013-3-9,17,11,5,16,8,3,93,91,85,29.91,29.74,29.65,10,2,0,30,18,48,0.70,7,Snow-Thunderstorm,222
2013-3-10,23,13,3,18,6,-4,100,73,36,30.19,30.04,29.91,10,9,0,28,13,33,0.00,1,Fog,27
2013-3-11,30,22,14,19,7,-2,100,57,31,30.20,30.17,30.13,10,10,10,20,11,26,0.00,0,,265
2013-3-12,32,24,17,21,12,5,93,61,38,30.40,30.29,30.19,10,10,10,16,8,23,0.00,0,,256
2013-3-13,37,29,21,19,11,3,93,53,26,30.50,30.45,30.39,10,10,10,18,11,21,0.00,0,,261
2013-3-14,,,,,,,,,,,,,,,,,,,,,,
2013-3-15,,,,,,,,,,,,,,,,,,,,,,
2013-3-16,,,,,,,,,,,,,,,,,,,,,,
2013-3-17,28,22,17,16,7,0,69,51,42,29.95,29.88,29.80,10,9,4,34,25,51,0.00,6,,245
2013-3-18,28,20,12,5,1,-4,67,45,25,30.09,30.00,29.93,10,10,10,37,20,47,0.00,0,,232
2013-3-19,30,24,17,12,5,0,68,47,37,30.29,30.16,30.08,10,10,10,30,16,39,0.00,3,,250
2013-3-20,28,22,17,21,11,3,100,68,40,30.29,30.18,30.03,10,7,0,37,17,51,0.01,4,Snow,224
2013-3-21,32,24,17,23,15,-6,100,76,30,30.02,29.87,29.77,10,6,0,37,20,47,0.06,5,Fog-Snow,226
2013-3-22,26,19,12,14,-2,-11,86,43,22,29.89,29.77,29.67,10,8,0,46,23,67,0.00,3,Snow,224
2013-3-23,17,6,-4,0,-9,-17,92,55,30,29.91,29.71,29.57,10,10,3,30,19,43,0.00,3,Snow,250
2013-3-24,14,5,-4,-2,-11,-20,72,51,34,29.97,29.88,29.84,10,10,10,24,10,31,0.00,3,,247
2013-3-25,21,10,0,-2,-9,-17,66,43,33,30.15,30.04,29.94,10,10,10,17,9,26,0.00,1,,227
2013-3-26,30,21,12,12,6,0,73,53,43,30.17,30.14,30.12,10,10,10,31,16,44,0.00,4,,222
2013-3-27,33,27,21,16,10,3,80,50,32,30.27,30.19,30.12,10,10,2,25,16,38,0.00,3,Snow,228
2013-3-28,35,29,23,12,8,5,50,42,35,30.35,30.28,30.24,10,10,10,21,16,32,0.00,1,,227
2013-3-29,35,30,26,25,16,9,86,57,43,30.40,30.36,30.33,10,10,2,21,15,29,0.00,2,Snow,235
2013-3-30,37,32,26,21,16,12,74,55,44,30.40,30.35,30.29,10,10,2,18,10,32,0.00,4,Snow,264
2013-3-31,39,31,23,19,16,12,80,56,41,30.32,30.29,30.26,10,10,10,18,9,25,0.00,2,,222